Time;durP1;ratioP1;P1;durP2;ratioP2;P2;SDS_P1;SDS_P2;PMS_P1;PMS_P2;Temp;Humidity;BMP_temperature;BMP_pressure;BME280_temperature;BME280_humidity;BME280_pressure;Samples;Min_cycle;Max_cycle;Signal;HPM_P1;HPM_P2
2022/08/29 00:00:40;;;;;;;1.70;0.85;;;16.50;77.60;;;;;;5032268;28;20474;-57
2022/08/29 00:03:05;;;;;;;1.63;0.60;;;16.50;77.80;;;;;;5032251;28;20021;-57
2022/08/29 00:05:34;;;;;;;2.95;0.90;;;16.40;77.90;;;;;;5031967;28;20032;-57
2022/08/29 00:08:01;;;;;;;1.55;0.73;;;16.40;78.00;;;;;;5031939;28;20037;-58
2022/08/29 00:10:28;;;;;;;4.20;0.82;;;16.30;78.20;;;;;;5032370;28;20105;-57
2022/08/29 00:12:54;;;;;;;1.98;0.70;;;16.30;78.50;;;;;;5029636;28;20105;-58
2022/08/29 00:15:20;;;;;;;1.73;0.80;;;16.20;78.70;;;;;;5031624;28;20463;-57
2022/08/29 00:17:46;;;;;;;2.70;0.93;;;16.10;78.80;;;;;;5030647;28;20544;-58
2022/08/29 00:20:16;;;;;;;3.05;0.90;;;16.10;79.00;;;;;;5031664;28;20076;-58
2022/08/29 00:22:42;;;;;;;1.33;0.60;;;16.10;79.30;;;;;;5030634;28;20057;-57
2022/08/29 00:25:10;;;;;;;2.30;0.63;;;16.00;79.40;;;;;;5031358;28;20516;-57
2022/08/29 00:27:35;;;;;;;3.22;1.20;;;16.00;79.40;;;;;;5031787;28;20056;-57
2022/08/29 00:30:01;;;;;;;2.65;1.15;;;16.00;79.60;;;;;;5031287;28;20077;-57
2022/08/29 00:32:33;;;;;;;2.55;0.88;;;15.90;79.80;;;;;;5031702;28;20082;-58
2022/08/29 00:35:00;;;;;;;1.73;0.85;;;15.80;80.00;;;;;;5029503;28;20146;-57
2022/08/29 00:37:25;;;;;;;2.40;0.98;;;15.70;80.10;;;;;;5031968;28;20044;-57
2022/08/29 00:39:51;;;;;;;1.63;0.75;;;15.70;80.30;;;;;;5031215;28;20474;-58
2022/08/29 00:42:17;;;;;;;1.52;0.88;;;15.60;80.50;;;;;;5031602;28;20033;-58
2022/08/29 00:44:42;;;;;;;1.58;0.73;;;15.60;80.70;;;;;;5031623;28;20021;-57
2022/08/29 00:47:11;;;;;;;2.40;0.90;;;15.60;80.90;;;;;;5031398;28;20029;-58
2022/08/29 00:49:47;;;;;;;2.13;0.80;;;15.50;81.00;;;;;;5031452;28;20032;-57
2022/08/29 00:52:41;;;;;;;2.78;1.63;;;15.50;81.20;;;;;;5031756;28;20031;-58
2022/08/29 00:55:11;;;;;;;6.65;1.00;;;15.40;81.20;;;;;;5030095;28;20031;-57
2022/08/29 00:57:43;;;;;;;2.78;0.70;;;15.40;81.60;;;;;;5031343;28;20021;-58
2022/08/29 01:00:10;;;;;;;1.63;0.77;;;15.30;81.60;;;;;;5021674;28;20029;-57
2022/08/29 01:02:38;;;;;;;2.17;0.90;;;15.20;81.80;;;;;;5031069;28;20108;-57
2022/08/29 01:05:06;;;;;;;1.75;0.80;;;15.20;81.90;;;;;;5031279;28;20021;-57
2022/08/29 01:07:32;;;;;;;3.33;1.10;;;15.20;82.00;;;;;;5030812;28;20037;-57
2022/08/29 01:09:58;;;;;;;2.85;0.93;;;15.10;82.20;;;;;;5031080;28;20148;-57
2022/08/29 01:12:24;;;;;;;3.47;0.65;;;15.10;82.30;;;;;;5030871;28;20100;-57
2022/08/29 01:14:58;;;;;;;4.13;1.05;;;15.10;82.50;;;;;;5030842;28;20013;-57
2022/08/29 01:17:29;;;;;;;2.17;0.65;;;15.10;82.60;;;;;;5031038;28;20474;-57
2022/08/29 01:19:59;;;;;;;1.73;0.80;;;15.10;83.30;;;;;;5030971;28;20100;-57
2022/08/29 01:22:51;;;;;;;1.65;0.60;;;15.00;82.90;;;;;;5029638;28;20022;-57
2022/08/29 01:25:21;;;;;;;1.70;0.73;;;15.00;83.20;;;;;;5028811;28;20501;-57
2022/08/29 01:28:03;;;;;;;1.63;0.90;;;14.80;83.50;;;;;;5030939;28;20030;-57
2022/08/29 01:30:29;;;;;;;1.52;0.60;;;14.80;83.60;;;;;;5030713;28;20075;-57
2022/08/29 01:32:56;;;;;;;0.95;0.60;;;14.80;83.90;;;;;;5030798;28;20061;-57
2022/08/29 01:35:23;;;;;;;1.92;0.82;;;14.70;84.60;;;;;;5030654;28;20021;-57
2022/08/29 01:37:49;;;;;;;1.58;0.70;;;14.70;84.10;;;;;;5030660;28;20428;-57
2022/08/29 01:40:14;;;;;;;3.40;0.65;;;14.70;84.30;;;;;;5031017;28;20462;-57
2022/08/29 01:42:40;;;;;;;1.00;0.60;;;14.60;84.40;;;;;;5030839;28;20487;-57
2022/08/29 01:45:07;;;;;;;1.58;0.65;;;14.50;84.40;;;;;;5030867;28;20536;-57
2022/08/29 01:47:34;;;;;;;1.10;0.70;;;14.50;84.50;;;;;;5030332;28;20083;-57
2022/08/29 01:50:01;;;;;;;1.75;0.88;;;14.50;84.60;;;;;;5030856;28;20461;-57
2022/08/29 01:52:27;;;;;;;1.85;0.85;;;14.50;84.70;;;;;;5030181;28;20044;-57
2022/08/29 01:54:52;;;;;;;2.05;0.70;;;14.40;84.80;;;;;;5031403;28;20026;-58
2022/08/29 01:57:18;;;;;;;2.85;1.00;;;14.40;85.00;;;;;;5030250;28;20025;-58
2022/08/29 01:59:45;;;;;;;3.22;0.90;;;14.40;85.10;;;;;;5030597;28;20488;-58
2022/08/29 02:02:19;;;;;;;1.80;0.80;;;14.40;85.30;;;;;;5030389;28;20020;-57
2022/08/29 02:04:46;;;;;;;2.75;0.77;;;14.40;85.40;;;;;;5013385;28;20044;-57
2022/08/29 02:07:12;;;;;;;1.27;0.80;;;14.30;85.60;;;;;;5032934;28;20053;-58
2022/08/29 02:09:39;;;;;;;2.40;0.73;;;14.30;85.70;;;;;;5034373;28;20025;-57
2022/08/29 02:12:06;;;;;;;2.45;0.77;;;14.30;86.30;;;;;;5034427;28;20057;-58
2022/08/29 02:14:33;;;;;;;1.98;0.90;;;14.20;85.90;;;;;;5033985;28;20010;-58
2022/08/29 02:17:01;;;;;;;1.92;0.93;;;14.20;86.10;;;;;;5034569;28;20109;-57
2022/08/29 02:19:27;;;;;;;2.15;0.98;;;14.10;86.30;;;;;;5034236;28;20102;-57
2022/08/29 02:21:53;;;;;;;2.22;0.90;;;14.10;86.60;;;;;;5034025;28;20524;-57
2022/08/29 02:24:18;;;;;;;1.95;0.90;;;14.10;86.70;;;;;;5033866;28;20025;-57
2022/08/29 02:26:44;;;;;;;1.67;0.77;;;14.10;86.90;;;;;;5035384;28;20022;-58
2022/08/29 02:29:11;;;;;;;3.95;0.70;;;14.00;87.00;;;;;;5033153;28;20065;-57
2022/08/29 02:31:38;;;;;;;2.03;0.73;;;14.00;87.10;;;;;;5023553;28;20030;-57
2022/08/29 02:34:04;;;;;;;1.67;0.80;;;14.00;87.30;;;;;;5033674;28;20029;-57
2022/08/29 02:36:29;;;;;;;1.80;0.95;;;13.90;87.40;;;;;;5033580;28;20272;-57
2022/08/29 02:38:55;;;;;;;1.92;0.95;;;13.90;87.50;;;;;;5033986;28;20033;-58
2022/08/29 02:41:21;;;;;;;2.05;0.82;;;13.90;87.60;;;;;;5033950;28;20025;-57
2022/08/29 02:43:46;;;;;;;3.03;0.85;;;13.80;87.70;;;;;;5033672;28;20540;-58
2022/08/29 02:46:15;;;;;;;1.25;0.70;;;13.80;87.90;;;;;;5033739;28;20026;-58
2022/08/29 02:48:42;;;;;;;1.60;0.93;;;13.80;88.10;;;;;;5033620;28;20446;-57
2022/08/29 02:51:08;;;;;;;2.03;1.15;;;13.80;88.10;;;;;;5033718;28;20116;-57
2022/08/29 02:53:34;;;;;;;2.28;0.90;;;13.80;88.20;;;;;;5033554;28;20116;-57
2022/08/29 02:56:00;;;;;;;1.63;0.93;;;13.80;88.30;;;;;;5033428;28;20047;-57
2022/08/29 02:58:26;;;;;;;2.15;1.02;;;13.70;88.50;;;;;;5033528;28;20021;-58
2022/08/29 03:00:52;;;;;;;2.25;0.82;;;13.60;88.70;;;;;;5033224;28;20029;-58
2022/08/29 03:03:18;;;;;;;1.02;0.60;;;13.70;89.00;;;;;;5033304;28;20045;-57
2022/08/29 03:05:44;;;;;;;1.50;0.77;;;13.60;89.00;;;;;;5033210;28;20032;-57
2022/08/29 03:08:12;;;;;;;2.33;0.70;;;13.50;89.30;;;;;;5033150;28;20026;-57
2022/08/29 03:10:38;;;;;;;1.67;0.88;;;13.60;89.60;;;;;;5033422;28;20049;-57
2022/08/29 03:13:04;;;;;;;2.17;0.93;;;13.50;89.60;;;;;;5033437;28;20430;-57
2022/08/29 03:15:30;;;;;;;2.45;1.00;;;13.60;89.80;;;;;;5032934;28;20045;-57
2022/08/29 03:17:57;;;;;;;2.00;0.90;;;13.50;89.90;;;;;;5033038;28;20470;-57
2022/08/29 03:20:23;;;;;;;3.72;0.90;;;13.50;90.00;;;;;;5033466;28;20024;-57
2022/08/29 03:22:50;;;;;;;3.05;1.10;;;13.50;90.10;;;;;;5033031;28;20314;-57
2022/08/29 03:25:16;;;;;;;1.88;0.70;;;13.50;90.20;;;;;;5031449;28;20036;-57
2022/08/29 03:27:42;;;;;;;1.35;0.68;;;13.50;90.30;;;;;;5033131;28;20022;-57
2022/08/29 03:30:11;;;;;;;1.55;0.80;;;13.40;90.40;;;;;;5032759;28;20053;-58
2022/08/29 03:32:38;;;;;;;1.83;1.02;;;13.40;90.40;;;;;;5030578;28;20025;-57
2022/08/29 03:35:04;;;;;;;1.80;0.90;;;13.40;90.50;;;;;;5032529;28;20129;-57
2022/08/29 03:37:31;;;;;;;2.72;0.85;;;13.40;90.50;;;;;;5031284;28;20118;-57
2022/08/29 03:39:57;;;;;;;2.28;1.15;;;13.40;90.60;;;;;;5032793;28;20033;-57
2022/08/29 03:42:22;;;;;;;1.15;0.73;;;13.30;90.60;;;;;;5032855;28;20027;-57
2022/08/29 03:44:48;;;;;;;1.10;0.80;;;13.30;90.70;;;;;;5032758;28;20104;-57
2022/08/29 03:47:13;;;;;;;1.73;0.80;;;13.30;90.70;;;;;;5032403;28;20083;-57
2022/08/29 03:49:39;;;;;;;1.38;0.77;;;13.30;90.70;;;;;;5032546;28;20384;-57
2022/08/29 03:52:06;;;;;;;1.75;0.90;;;13.30;90.70;;;;;;5015000;28;20026;-57
2022/08/29 03:54:32;;;;;;;1.92;0.80;;;13.20;90.80;;;;;;5032377;28;20370;-57
2022/08/29 03:56:57;;;;;;;2.08;0.80;;;13.20;90.80;;;;;;5032656;28;20064;-57
2022/08/29 03:59:23;;;;;;;2.55;0.98;;;13.20;90.80;;;;;;5030928;28;20049;-57
2022/08/29 04:01:49;;;;;;;2.20;1.00;;;13.20;90.90;;;;;;5032121;28;20025;-57
2022/08/29 04:07:01;;;;;;;1.95;1.00;;;13.20;90.90;;;;;;5032678;28;20075;-57
2022/08/29 04:09:27;;;;;;;1.77;1.00;;;13.10;90.90;;;;;;5030972;28;20030;-57
2022/08/29 04:11:53;;;;;;;1.70;1.23;;;13.10;91.00;;;;;;5032142;28;20025;-57
2022/08/29 04:14:19;;;;;;;0.98;0.60;;;13.10;91.10;;;;;;5031855;28;20029;-57
2022/08/29 04:16:49;;;;;;;1.73;0.60;;;13.00;91.10;;;;;;5032051;28;20033;-57
2022/08/29 04:19:19;;;;;;;1.17;0.68;;;13.10;91.50;;;;;;5032144;28;20432;-57
2022/08/29 04:21:44;;;;;;;1.50;0.57;;;13.00;91.20;;;;;;5030685;28;20017;-57
2022/08/29 04:24:11;;;;;;;1.48;0.70;;;13.00;91.20;;;;;;5031923;28;20091;-57
2022/08/29 04:26:39;;;;;;;1.73;0.65;;;13.00;91.30;;;;;;5031913;28;20029;-57
2022/08/29 04:29:07;;;;;;;1.42;0.80;;;13.00;91.30;;;;;;5030883;28;20099;-57
2022/08/29 04:31:33;;;;;;;3.75;1.10;;;12.90;91.30;;;;;;5031708;28;20473;-57
2022/08/29 04:33:58;;;;;;;2.42;0.98;;;12.90;91.40;;;;;;5031888;28;20029;-57
2022/08/29 04:36:24;;;;;;;2.63;0.90;;;12.90;91.40;;;;;;5031476;28;20047;-57
2022/08/29 04:38:50;;;;;;;2.95;0.95;;;12.90;91.50;;;;;;5033226;28;20060;-57
2022/08/29 04:41:15;;;;;;;2.42;1.00;;;12.90;91.60;;;;;;5032379;28;20025;-57
2022/08/29 04:43:44;;;;;;;1.63;1.10;;;12.90;91.60;;;;;;5032093;28;20453;-57
2022/08/29 04:46:09;;;;;;;4.65;1.13;;;12.80;91.60;;;;;;5031981;28;20036;-57
2022/08/29 04:48:48;;;;;;;;;;;;;;;;;;;;;
2022/08/29 04:51:13;;;;;;;4.43;1.40;;;12.80;91.70;;;;;;5032486;28;20020;-57
2022/08/29 04:53:39;;;;;;;1.85;1.00;;;12.80;91.80;;;;;;5031535;28;20548;-57
2022/08/29 04:56:07;;;;;;;2.15;1.13;;;12.80;91.80;;;;;;5030364;28;20473;-57
2022/08/29 04:58:35;;;;;;;1.77;0.90;;;12.80;91.80;;;;;;5032129;28;20072;-57
2022/08/29 05:01:01;;;;;;;2.90;1.63;;;12.80;91.90;;;;;;5031936;28;20052;-57
2022/08/29 05:03:27;;;;;;;2.83;1.25;;;12.90;91.90;;;;;;5032777;28;20083;-57
2022/08/29 05:06:06;;;;;;;2.03;1.13;;;12.80;91.90;;;;;;5032302;28;20026;-57
2022/08/29 05:08:32;;;;;;;2.22;1.20;;;12.80;92.00;;;;;;5022994;28;20363;-57
2022/08/29 05:10:58;;;;;;;7.63;1.30;;;12.90;92.10;;;;;;5031316;28;20064;-57
2022/08/29 05:13:24;;;;;;;2.42;1.33;;;12.80;92.10;;;;;;5030825;28;20053;-57
2022/08/29 05:15:50;;;;;;;2.40;1.20;;;12.90;92.20;;;;;;5026617;28;20045;-57
2022/08/29 05:18:17;;;;;;;3.70;1.42;;;12.90;92.20;;;;;;5030120;28;20516;-57
2022/08/29 05:20:46;;;;;;;2.67;1.02;;;12.90;92.20;;;;;;5032444;28;20018;-57
2022/08/29 05:23:12;;;;;;;2.15;1.40;;;12.90;92.20;;;;;;5031239;28;20026;-57
2022/08/29 05:25:39;;;;;;;1.88;1.25;;;12.90;92.30;;;;;;5032018;28;20034;-57
2022/08/29 05:28:05;;;;;;;1.63;0.93;;;13.00;92.30;;;;;;5032077;28;20100;-57
2022/08/29 05:30:30;;;;;;;2.00;1.33;;;13.00;92.30;;;;;;5032063;28;20117;-57
2022/08/29 05:32:59;;;;;;;3.53;1.40;;;13.00;92.40;;;;;;5030839;28;20112;-57
2022/08/29 05:35:25;;;;;;;5.50;1.25;;;13.00;92.40;;;;;;5032117;28;20025;-57
2022/08/29 05:37:51;;;;;;;2.03;1.00;;;13.10;92.40;;;;;;5032119;28;20108;-57
2022/08/29 05:40:16;;;;;;;2.33;1.10;;;13.10;92.40;;;;;;5031968;28;20097;-57
2022/08/29 05:42:42;;;;;;;2.97;1.10;;;13.10;92.40;;;;;;5036015;28;20473;-57
2022/08/29 05:45:08;;;;;;;3.03;1.10;;;13.20;92.40;;;;;;5034483;28;20030;-57
2022/08/29 05:47:34;;;;;;;2.08;1.30;;;13.20;92.50;;;;;;5034762;28;20017;-57
2022/08/29 05:50:00;;;;;;;2.75;1.10;;;13.30;92.50;;;;;;5035764;28;20034;-57
2022/08/29 05:52:26;;;;;;;2.42;1.13;;;13.30;92.60;;;;;;5035895;28;20040;-57
2022/08/29 05:54:51;;;;;;;1.90;1.10;;;13.40;92.60;;;;;;5036097;28;20037;-57
2022/08/29 05:57:20;;;;;;;3.47;1.30;;;13.40;92.70;;;;;;5035876;28;20030;-57
2022/08/29 05:59:47;;;;;;;4.43;1.60;;;13.50;92.80;;;;;;5024197;28;20084;-57
2022/08/29 06:02:13;;;;;;;4.25;2.00;;;13.50;92.90;;;;;;5035808;28;20053;-57
2022/08/29 06:04:39;;;;;;;3.42;2.30;;;13.60;93.20;;;;;;5035945;28;20107;-57
2022/08/29 06:07:05;;;;;;;2.70;1.90;;;13.60;93.40;;;;;;5034640;28;20392;-57
2022/08/29 06:09:45;;;;;;;3.20;2.08;;;13.60;93.50;;;;;;5035704;28;20096;-57
2022/08/29 06:12:14;;;;;;;3.00;1.80;;;13.70;93.50;;;;;;5035321;28;20344;-57
2022/08/29 06:14:40;;;;;;;4.15;1.90;;;13.80;93.50;;;;;;5026077;28;20635;-57
2022/08/29 06:17:07;;;;;;;5.00;2.13;;;13.80;93.60;;;;;;5035468;28;20109;-57
2022/08/29 06:19:33;;;;;;;3.78;2.30;;;13.90;93.60;;;;;;5035872;28;20017;-57
2022/08/29 06:22:02;;;;;;;5.30;2.00;;;14.00;93.70;;;;;;5034987;28;20045;-57
2022/08/29 06:24:30;;;;;;;3.08;1.38;;;14.00;93.60;;;;;;5035595;28;20056;-57
2022/08/29 06:26:57;;;;;;;4.13;2.03;;;14.10;93.60;;;;;;5034057;28;20048;-57
2022/08/29 06:29:22;;;;;;;3.05;1.80;;;14.20;93.60;;;;;;5035246;28;20060;-57
2022/08/29 06:31:48;;;;;;;2.90;1.70;;;14.30;93.60;;;;;;5034343;28;20381;-57
2022/08/29 06:34:13;;;;;;;3.10;1.40;;;14.40;93.50;;;;;;5034079;28;20076;-57
2022/08/29 06:36:39;;;;;;;4.22;1.85;;;14.40;93.40;;;;;;5035147;28;20052;-57
2022/08/29 06:39:07;;;;;;;3.85;1.80;;;14.50;93.30;;;;;;5035370;28;20029;-57
2022/08/29 06:41:34;;;;;;;3.70;1.95;;;14.60;93.30;;;;;;5034819;28;20017;-57
2022/08/29 06:44:00;;;;;;;3.55;2.13;;;14.70;93.30;;;;;;5035597;28;20021;-57
2022/08/29 06:46:28;;;;;;;3.50;2.10;;;14.70;93.30;;;;;;5035025;28;20389;-57
2022/08/29 06:48:55;;;;;;;4.43;2.13;;;14.80;93.30;;;;;;5034410;28;20072;-57
2022/08/29 06:51:21;;;;;;;4.60;2.65;;;14.90;93.20;;;;;;5031815;28;20060;-57
2022/08/29 06:53:47;;;;;;;2.92;2.22;;;15.00;93.10;;;;;;5033371;28;20530;-57
2022/08/29 06:56:13;;;;;;;3.38;2.10;;;15.00;93.10;;;;;;5033866;28;20033;-57
2022/08/29 06:58:40;;;;;;;3.67;2.20;;;15.10;93.10;;;;;;5001292;28;20735;-59
2022/08/29 07:01:07;;;;;;;2.70;1.83;;;15.20;93.10;;;;;;5031740;28;20022;-57
2022/08/29 07:03:33;;;;;;;5.80;2.17;;;15.30;93.00;;;;;;5033248;28;20021;-57
2022/08/29 07:05:58;;;;;;;4.95;2.45;;;15.40;92.90;;;;;;5033025;28;20030;-57
2022/08/29 07:08:24;;;;;;;5.75;3.20;;;15.50;92.90;;;;;;5038091;28;20030;-57
2022/08/29 07:10:49;;;;;;;5.22;2.65;;;15.60;92.80;;;;;;5031741;28;20099;-57
2022/08/29 07:13:15;;;;;;;5.57;3.50;;;15.70;92.80;;;;;;5039011;28;20029;-57
2022/08/29 07:15:41;;;;;;;4.97;3.33;;;15.80;92.70;;;;;;5041141;28;20033;-56
2022/08/29 07:18:06;;;;;;;7.20;3.28;;;15.90;92.60;;;;;;5037488;28;20028;-57
2022/08/29 07:20:32;;;;;;;5.47;3.00;;;16.00;92.40;;;;;;5038128;28;20358;-57
2022/08/29 07:22:57;;;;;;;7.60;3.35;;;16.10;92.20;;;;;;5028771;28;20113;-57
2022/08/29 07:25:23;;;;;;;5.70;2.45;;;16.30;92.10;;;;;;5030649;28;20492;-57
2022/08/29 07:27:49;;;;;;;4.28;2.17;;;16.40;92.00;;;;;;5032300;28;20440;-57
2022/08/29 07:30:16;;;;;;;4.93;2.28;;;16.50;91.80;;;;;;5032894;28;20077;-57
2022/08/29 07:32:44;;;;;;;4.85;2.25;;;16.60;91.60;;;;;;5040278;28;20084;-57
2022/08/29 07:35:11;;;;;;;7.15;2.78;;;16.70;91.50;;;;;;5035747;28;20017;-57
2022/08/29 07:37:36;;;;;;;5.03;2.60;;;16.90;91.30;;;;;;5033842;28;20017;-57
2022/08/29 07:40:02;;;;;;;5.35;2.78;;;17.00;91.10;;;;;;5035355;28;20044;-57
2022/08/29 07:42:27;;;;;;;5.68;2.58;;;17.10;90.80;;;;;;5034697;28;20045;-57
2022/08/29 07:44:53;;;;;;;4.97;2.55;;;17.30;90.60;;;;;;5034815;28;20466;-57
2022/08/29 07:47:19;;;;;;;4.80;2.58;;;17.40;90.30;;;;;;5046749;28;20035;-57
2022/08/29 07:49:45;;;;;;;3.50;1.85;;;17.50;90.00;;;;;;5034127;28;20544;-57
2022/08/29 07:52:10;;;;;;;4.75;2.28;;;17.60;89.30;;;;;;5032463;28;20105;-57
2022/08/29 07:54:36;;;;;;;3.35;2.03;;;17.70;88.80;;;;;;5032976;28;20469;-58
2022/08/29 07:57:02;;;;;;;5.65;2.20;;;17.80;88.20;;;;;;5042636;28;20071;-57
2022/08/29 07:59:30;;;;;;;9.30;2.70;;;17.90;87.70;;;;;;5033766;28;20094;-57
2022/08/29 08:01:55;;;;;;;5.50;2.03;;;18.00;87.00;;;;;;5034316;28;20059;-57
2022/08/29 08:04:21;;;;;;;6.15;2.00;;;18.10;86.40;;;;;;5032092;28;20064;-57
2022/08/29 08:06:46;;;;;;;4.97;2.03;;;18.20;84.70;;;;;;5033167;28;20028;-58
2022/08/29 08:09:14;;;;;;;4.25;1.67;;;18.30;83.40;;;;;;5040194;28;20381;-58
2022/08/29 08:11:40;;;;;;;6.30;1.90;;;18.50;83.10;;;;;;5037394;28;20031;-57
2022/08/29 08:14:06;;;;;;;4.22;2.20;;;18.60;82.00;;;;;;5036048;28;20520;-57
2022/08/29 08:16:32;;;;;;;4.00;1.50;;;18.70;81.40;;;;;;5032049;28;20029;-57
2022/08/29 08:18:58;;;;;;;4.32;1.10;;;18.80;80.90;;;;;;5038647;28;20017;-57
2022/08/29 08:21:25;;;;;;;4.50;1.70;;;18.80;80.20;;;;;;5043936;28;20036;-57
2022/08/29 08:23:51;;;;;;;5.10;1.58;;;18.90;79.60;;;;;;5031906;28;20021;-57
2022/08/29 08:26:18;;;;;;;2.67;1.50;;;19.00;79.10;;;;;;5035958;28;20075;-57
2022/08/29 08:28:43;;;;;;;2.58;1.27;;;19.10;78.10;;;;;;5032733;28;20101;-57
2022/08/29 08:31:12;;;;;;;4.50;1.60;;;19.20;77.40;;;;;;5041553;28;20045;-57
2022/08/29 08:33:38;;;;;;;3.10;1.20;;;19.30;76.20;;;;;;5032626;28;20095;-57
2022/08/29 08:36:12;;;;;;;6.22;1.75;;;19.40;75.60;;;;;;5044111;28;20021;-57
2022/08/29 08:38:37;;;;;;;2.85;1.40;;;19.40;74.70;;;;;;5041642;28;20024;-58
2022/08/29 08:41:26;;;;;;;4.88;1.85;;;19.50;75.40;;;;;;5042026;28;20100;-57
2022/08/29 08:43:54;;;;;;;6.45;2.50;;;19.60;74.30;;;;;;5022559;28;20025;-57
2022/08/29 08:46:36;;;;;;;5.45;1.95;;;19.60;73.30;;;;;;5042305;28;20040;-57
2022/08/29 08:49:37;;;;;;;5.63;1.77;;;19.70;72.80;;;;;;5042185;28;20491;-57
2022/08/29 08:52:09;;;;;;;4.82;1.80;;;19.80;73.10;;;;;;5010017;28;20042;-58
2022/08/29 08:54:51;;;;;;;5.38;2.17;;;19.90;72.80;;;;;;5040682;28;20025;-60
2022/08/29 08:57:19;;;;;;;3.33;1.65;;;20.00;72.30;;;;;;5034924;28;20018;-57
2022/08/29 08:59:51;;;;;;;5.13;1.77;;;20.00;72.10;;;;;;5029000;28;20113;-58
2022/08/29 09:02:33;;;;;;;3.75;1.67;;;20.20;72.20;;;;;;5033030;28;20097;-57
2022/08/29 09:05:08;;;;;;;4.15;1.90;;;20.20;72.00;;;;;;5032150;28;20497;-57
2022/08/29 09:08:01;;;;;;;3.63;1.80;;;20.20;71.60;;;;;;5030558;28;20116;-57
2022/08/29 09:10:52;;;;;;;3.78;1.77;;;20.30;71.70;;;;;;5028716;28;20490;-57
2022/08/29 09:13:52;;;;;;;3.08;1.50;;;20.40;71.70;;;;;;5022919;28;20132;-57
2022/08/29 09:16:25;;;;;;;;;;;20.50;71.50;;;;;;5020417;28;20053;-57
2022/08/29 09:18:51;;;;;;;4.38;2.10;;;20.50;71.20;;;;;;5030068;28;19909;-58
2022/08/29 09:21:19;;;;;;;3.50;1.70;;;20.50;70.50;;;;;;5028789;28;20482;-57
2022/08/29 09:23:48;;;;;;;3.60;1.83;;;20.60;70.60;;;;;;5029716;28;20040;-57
2022/08/29 09:26:20;;;;;;;4.23;1.70;;;20.60;70.20;;;;;;5031771;28;20036;-58
2022/08/29 09:28:46;;;;;;;4.38;1.60;;;20.70;69.90;;;;;;5032208;28;21385;-57
2022/08/29 09:31:33;;;;;;;2.50;1.23;;;20.70;69.80;;;;;;5030938;28;20032;-57
2022/08/29 09:34:02;;;;;;;3.92;1.75;;;20.80;69.50;;;;;;5032055;28;20116;-57
2022/08/29 09:36:44;;;;;;;3.35;1.40;;;20.80;69.30;;;;;;5032349;28;20028;-57
2022/08/29 09:39:23;;;;;;;4.22;2.30;;;20.90;69.00;;;;;;5031991;28;20025;-57
2022/08/29 09:42:18;;;;;;;3.20;1.42;;;20.90;68.90;;;;;;5031922;28;20555;-57
2022/08/29 09:44:52;;;;;;;3.75;1.70;;;21.00;68.70;;;;;;5029600;28;20041;-57
2022/08/29 09:47:21;;;;;;;3.25;1.50;;;20.90;68.50;;;;;;5024895;28;20420;-58
2022/08/29 09:50:11;;;;;;;;;;;20.90;68.50;;;;;;5031841;28;20025;-58
2022/08/29 09:52:49;;;;;;;3.60;1.63;;;20.90;68.20;;;;;;5031049;28;19915;-58
2022/08/29 09:55:19;;;;;;;5.60;2.63;;;20.90;68.40;;;;;;5031704;28;20026;-58
2022/08/29 09:57:51;;;;;;;4.05;1.70;;;21.00;68.00;;;;;;5031754;28;20033;-57
2022/08/29 10:00:24;;;;;;;2.88;1.35;;;21.10;68.00;;;;;;5027112;28;20466;-58
2022/08/29 10:02:55;;;;;;;2.78;1.60;;;21.10;67.70;;;;;;5027789;28;20013;-58
2022/08/29 10:05:36;;;;;;;3.00;1.50;;;21.10;67.70;;;;;;5028439;28;20049;-58
2022/08/29 10:08:05;;;;;;;3.63;1.75;;;21.20;67.50;;;;;;5028171;28;20084;-58
2022/08/29 10:10:34;;;;;;;2.65;1.60;;;21.20;67.40;;;;;;5029419;28;20481;-58
2022/08/29 10:13:21;;;;;;;2.47;1.23;;;21.20;67.20;;;;;;5028726;28;20480;-57
2022/08/29 10:15:57;;;;;;;4.03;1.52;;;21.30;67.10;;;;;;5027402;28;20322;-57
2022/08/29 10:18:43;;;;;;;2.15;1.33;;;21.40;67.00;;;;;;5027838;28;20016;-58
2022/08/29 10:21:24;;;;;;;4.38;1.70;;;21.40;66.80;;;;;;5026974;28;20049;-58
2022/08/29 10:24:19;;;;;;;4.53;2.00;;;21.50;66.60;;;;;;5028126;28;20029;-57
2022/08/29 10:27:01;;;;;;;4.90;2.30;;;21.70;66.40;;;;;;5029659;28;20021;-58
2022/08/29 10:29:38;;;;;;;2.80;1.52;;;22.00;66.10;;;;;;5033396;28;20088;-58
2022/08/29 10:32:42;;;;;;;3.70;1.55;;;22.10;65.70;;;;;;5027126;28;20057;-58
2022/08/29 10:35:18;;;;;;;2.75;1.38;;;22.30;65.00;;;;;;5028806;28;20045;-58
2022/08/29 10:38:04;;;;;;;3.53;1.58;;;22.40;64.70;;;;;;5033865;28;20013;-57
2022/08/29 10:40:46;;;;;;;2.53;1.40;;;22.60;64.30;;;;;;5031851;28;20116;-58
2022/08/29 10:43:34;;;;;;;5.28;1.40;;;22.70;63.50;;;;;;5033068;28;20064;-58
2022/08/29 10:46:32;;;;;;;3.22;1.30;;;23.00;63.20;;;;;;5031229;28;20037;-58
2022/08/29 10:49:19;;;;;;;3.47;1.27;;;23.30;62.80;;;;;;5030562;28;20058;-58
2022/08/29 10:52:17;;;;;;;3.72;1.77;;;23.70;62.00;;;;;;5031927;28;20049;-58
2022/08/29 10:54:51;;;;;;;3.17;1.58;;;23.90;61.30;;;;;;5031979;28;20025;-58
2022/08/29 10:57:43;;;;;;;3.67;1.58;;;24.10;60.90;;;;;;5029855;28;20050;-57
2022/08/29 11:00:18;;;;;;;3.13;1.58;;;24.30;60.00;;;;;;5025878;28;20168;-58
2022/08/29 11:02:56;;;;;;;3.05;1.60;;;24.50;59.50;;;;;;5030683;28;20014;-58
2022/08/29 11:05:38;;;;;;;3.92;1.70;;;25.10;58.50;;;;;;5032063;28;20017;-58
2022/08/29 11:08:11;;;;;;;2.50;1.50;;;25.10;57.40;;;;;;5030001;28;20033;-58
2022/08/29 11:10:42;;;;;;;3.00;1.42;;;25.10;57.10;;;;;;5031975;28;20021;-58
2022/08/29 11:13:20;;;;;;;3.10;1.58;;;25.30;57.00;;;;;;5030891;28;20627;-58
2022/08/29 11:15:54;;;;;;;3.22;1.35;;;25.30;56.20;;;;;;5032059;28;20014;-58
2022/08/29 11:18:37;;;;;;;2.83;1.58;;;25.50;56.40;;;;;;5030416;28;20040;-58
2022/08/29 11:21:26;;;;;;;3.22;1.80;;;26.00;55.90;;;;;;5030480;28;20120;-58
2022/08/29 11:23:51;;;;;;;;;;;26.40;54.70;;;;;;5030811;28;20532;-58
2022/08/29 11:26:46;;;;;;;2.08;1.40;;;26.50;55.10;;;;;;5030098;28;19948;-58
2022/08/29 11:29:24;;;;;;;2.28;1.23;;;27.30;55.00;;;;;;5029010;28;20045;-58
2022/08/29 11:32:08;;;;;;;4.05;1.40;;;27.90;54.10;;;;;;5023333;28;20029;-58
2022/08/29 11:35:00;;;;;;;2.83;1.40;;;27.80;53.00;;;;;;5034675;28;20025;-58
2022/08/29 11:37:48;;;;;;;2.90;1.30;;;27.60;52.70;;;;;;5030660;28;20025;-58
2022/08/29 11:40:34;;;;;;;4.15;1.33;;;28.80;52.80;;;;;;5033919;28;20393;-58
2022/08/29 11:43:02;;;;;;;4.30;1.65;;;30.00;51.50;;;;;;5035335;28;20021;-58
2022/08/29 11:45:34;;;;;;;2.97;1.73;;;30.00;50.10;;;;;;5035008;28;20458;-58
2022/08/29 11:48:27;;;;;;;2.55;1.35;;;29.60;49.70;;;;;;5033153;28;20029;-58
2022/08/29 11:50:53;;;;;;;1.90;1.35;;;29.30;49.70;;;;;;5031777;28;20496;-58
2022/08/29 11:53:19;;;;;;;2.30;1.30;;;30.60;50.00;;;;;;5034413;28;20039;-58
2022/08/29 11:56:14;;;;;;;1.98;1.42;;;32.20;48.70;;;;;;5033114;28;20021;-59
2022/08/29 11:58:49;;;;;;;2.42;1.30;;;33.70;46.90;;;;;;5034770;28;20083;-59
2022/08/29 12:01:23;;;;;;;2.78;1.02;;;34.40;45.40;;;;;;5030665;28;20729;-59
2022/08/29 12:03:50;;;;;;;2.58;1.60;;;34.50;44.50;;;;;;5042770;28;20039;-59
2022/08/29 12:06:23;;;;;;;2.13;1.40;;;34.40;43.30;;;;;;5044696;28;20017;-59
2022/08/29 12:09:00;;;;;;;2.65;1.42;;;34.20;42.90;;;;;;5040847;28;20036;-59
2022/08/29 12:12:11;;;;;;;2.15;1.33;;;33.40;43.30;;;;;;5029305;28;20433;-59
2022/08/29 12:14:39;;;;;;;2.03;1.40;;;32.80;44.00;;;;;;5042004;28;20350;-59
2022/08/29 12:17:08;;;;;;;2.50;1.60;;;32.20;43.90;;;;;;5030463;28;20021;-58
2022/08/29 12:20:09;;;;;;;3.10;1.70;;;31.70;43.80;;;;;;5033293;28;20132;-58
2022/08/29 12:22:55;;;;;;;2.67;1.77;;;31.30;44.00;;;;;;5043269;28;20113;-57
2022/08/29 12:25:26;;;;;;;3.22;1.63;;;31.20;43.80;;;;;;5028191;28;20029;-58
2022/08/29 12:27:55;;;;;;;2.97;1.33;;;31.10;44.00;;;;;;5033939;28;20493;-58
2022/08/29 12:30:21;;;;;;;2.65;1.50;;;31.10;44.10;;;;;;5043285;28;20457;-58
2022/08/29 12:33:06;;;;;;;3.38;1.80;;;31.00;44.00;;;;;;5041492;28;20547;-58
2022/08/29 12:36:04;;;;;;;2.85;1.67;;;30.80;43.90;;;;;;5030675;28;20041;-58
2022/08/29 12:39:00;;;;;;;3.15;1.70;;;30.60;44.30;;;;;;5030164;28;20021;-58
2022/08/29 12:42:03;;;;;;;3.45;1.70;;;30.70;44.20;;;;;;5031477;28;20389;-58
2022/08/29 12:44:35;;;;;;;3.80;1.60;;;30.60;43.90;;;;;;5031498;28;20029;-58
2022/08/29 12:47:05;;;;;;;3.13;1.40;;;30.40;44.10;;;;;;5030986;28;20484;-58
2022/08/29 12:49:50;;;;;;;3.78;1.52;;;30.30;44.20;;;;;;5029188;28;20044;-58
2022/08/29 12:52:32;;;;;;;2.40;1.25;;;30.30;44.20;;;;;;5031491;28;20025;-58
2022/08/29 12:55:16;;;;;;;2.47;1.48;;;30.20;44.40;;;;;;5030069;28;20037;-58
2022/08/29 12:57:44;;;;;;;3.55;2.28;;;30.20;44.50;;;;;;5028824;28;20105;-58
2022/08/29 13:00:20;;;;;;;2.42;1.60;;;30.10;44.20;;;;;;5027078;28;20025;-58
2022/08/29 13:03:11;;;;;;;2.65;1.30;;;30.20;44.60;;;;;;5029848;28;20049;-58
2022/08/29 13:05:39;;;;;;;2.60;1.55;;;30.40;44.50;;;;;;5037049;28;20104;-58
2022/08/29 13:08:08;;;;;;;2.90;1.38;;;30.50;44.30;;;;;;5029718;28;20018;-58
2022/08/29 13:10:51;;;;;;;2.95;1.40;;;30.70;44.40;;;;;;5034546;28;20029;-58